sensor_id;sensor_type;location;lat;lon;timestamp;P1;durP1;ratioP1;P2;durP2;ratioP2
39448;SDS011;25151;45.566;9.382;2023-12-07T00:00:06;7.00;;;4.75;;
39448;SDS011;25151;45.566;9.382;2023-12-07T00:02:31;6.30;;;4.82;;
39448;SDS011;25151;45.566;9.382;2023-12-07T00:04:57;7.28;;;4.50;;
39448;SDS011;25151;45.566;9.382;2023-12-07T00:07:22;6.03;;;4.93;;
39448;SDS011;25151;45.566;9.382;2023-12-07T00:09:48;6.38;;;4.40;;
39448;SDS011;25151;45.566;9.382;2023-12-07T00:12:13;6.68;;;4.68;;
39448;SDS011;25151;45.566;9.382;2023-12-07T00:14:39;6.85;;;4.43;;
39448;SDS011;25151;45.566;9.382;2023-12-07T00:17:04;5.45;;;4.57;;
39448;SDS011;25151;45.566;9.382;2023-12-07T00:19:29;8.10;;;4.85;;
39448;SDS011;25151;45.566;9.382;2023-12-07T00:21:56;5.97;;;4.82;;
39448;SDS011;25151;45.566;9.382;2023-12-07T00:24:21;5.95;;;4.70;;
39448;SDS011;25151;45.566;9.382;2023-12-07T00:26:46;4.85;;;4.00;;
39448;SDS011;25151;45.566;9.382;2023-12-07T00:29:12;7.10;;;4.90;;
39448;SDS011;25151;45.566;9.382;2023-12-07T00:31:37;5.78;;;4.55;;
39448;SDS011;25151;45.566;9.382;2023-12-07T00:34:03;8.25;;;4.47;;
39448;SDS011;25151;45.566;9.382;2023-12-07T00:36:28;5.45;;;4.32;;
39448;SDS011;25151;45.566;9.382;2023-12-07T00:38:54;7.43;;;4.75;;
39448;SDS011;25151;45.566;9.382;2023-12-07T00:41:19;6.13;;;4.72;;
39448;SDS011;25151;45.566;9.382;2023-12-07T00:43:45;4.53;;;4.05;;
39448;SDS011;25151;45.566;9.382;2023-12-07T00:46:10;6.38;;;4.32;;
39448;SDS011;25151;45.566;9.382;2023-12-07T00:48:36;5.47;;;4.53;;
39448;SDS011;25151;45.566;9.382;2023-12-07T00:51:01;6.30;;;4.68;;
39448;SDS011;25151;45.566;9.382;2023-12-07T00:53:27;7.70;;;4.80;;
39448;SDS011;25151;45.566;9.382;2023-12-07T00:55:53;5.90;;;4.55;;
39448;SDS011;25151;45.566;9.382;2023-12-07T00:58:18;4.75;;;4.20;;
39448;SDS011;25151;45.566;9.382;2023-12-07T01:00:43;6.07;;;4.25;;
39448;SDS011;25151;45.566;9.382;2023-12-07T01:03:09;5.95;;;4.78;;
39448;SDS011;25151;45.566;9.382;2023-12-07T01:05:35;6.40;;;4.45;;
39448;SDS011;25151;45.566;9.382;2023-12-07T01:08:00;5.82;;;4.82;;
39448;SDS011;25151;45.566;9.382;2023-12-07T01:10:26;6.10;;;4.60;;
39448;SDS011;25151;45.566;9.382;2023-12-07T01:12:51;6.03;;;5.32;;
39448;SDS011;25151;45.566;9.382;2023-12-07T01:15:17;8.30;;;4.70;;
39448;SDS011;25151;45.566;9.382;2023-12-07T01:17:42;6.90;;;4.60;;
39448;SDS011;25151;45.566;9.382;2023-12-07T01:20:08;5.65;;;4.68;;
39448;SDS011;25151;45.566;9.382;2023-12-07T01:22:38;6.65;;;4.60;;
39448;SDS011;25151;45.566;9.382;2023-12-07T01:25:04;8.23;;;5.13;;
39448;SDS011;25151;45.566;9.382;2023-12-07T01:27:30;6.90;;;4.35;;
39448;SDS011;25151;45.566;9.382;2023-12-07T01:29:56;5.75;;;5.03;;
39448;SDS011;25151;45.566;9.382;2023-12-07T01:32:22;6.43;;;4.85;;
39448;SDS011;25151;45.566;9.382;2023-12-07T01:34:47;6.32;;;5.10;;
39448;SDS011;25151;45.566;9.382;2023-12-07T01:37:13;5.55;;;4.40;;
39448;SDS011;25151;45.566;9.382;2023-12-07T01:39:38;6.80;;;5.32;;
39448;SDS011;25151;45.566;9.382;2023-12-07T01:42:04;5.72;;;4.40;;
39448;SDS011;25151;45.566;9.382;2023-12-07T01:44:29;6.65;;;5.22;;
39448;SDS011;25151;45.566;9.382;2023-12-07T01:46:54;5.50;;;4.80;;
39448;SDS011;25151;45.566;9.382;2023-12-07T01:49:20;5.63;;;4.80;;
39448;SDS011;25151;45.566;9.382;2023-12-07T01:51:46;7.15;;;4.53;;
39448;SDS011;25151;45.566;9.382;2023-12-07T01:54:12;7.47;;;5.38;;
39448;SDS011;25151;45.566;9.382;2023-12-07T01:56:37;9.20;;;5.03;;
39448;SDS011;25151;45.566;9.382;2023-12-07T01:59:03;6.47;;;4.88;;
39448;SDS011;25151;45.566;9.382;2023-12-07T02:01:28;6.30;;;5.05;;
39448;SDS011;25151;45.566;9.382;2023-12-07T02:03:54;7.15;;;5.57;;
39448;SDS011;25151;45.566;9.382;2023-12-07T02:06:19;6.40;;;5.00;;
39448;SDS011;25151;45.566;9.382;2023-12-07T02:08:45;6.15;;;4.82;;
39448;SDS011;25151;45.566;9.382;2023-12-07T02:11:11;6.20;;;5.18;;
39448;SDS011;25151;45.566;9.382;2023-12-07T02:13:37;5.75;;;4.88;;
39448;SDS011;25151;45.566;9.382;2023-12-07T02:16:04;6.78;;;5.30;;
39448;SDS011;25151;45.566;9.382;2023-12-07T02:18:40;6.93;;;5.03;;
39448;SDS011;25151;45.566;9.382;2023-12-07T02:21:22;5.75;;;4.72;;
39448;SDS011;25151;45.566;9.382;2023-12-07T02:23:55;5.82;;;4.80;;
39448;SDS011;25151;45.566;9.382;2023-12-07T02:28:55;7.80;;;5.28;;
39448;SDS011;25151;45.566;9.382;2023-12-07T02:31:20;6.70;;;5.20;;
39448;SDS011;25151;45.566;9.382;2023-12-07T02:33:45;7.40;;;5.55;;
39448;SDS011;25151;45.566;9.382;2023-12-07T02:36:12;7.68;;;5.47;;
39448;SDS011;25151;45.566;9.382;2023-12-07T02:38:40;5.70;;;5.00;;
39448;SDS011;25151;45.566;9.382;2023-12-07T02:41:07;6.45;;;4.95;;
39448;SDS011;25151;45.566;9.382;2023-12-07T02:43:33;6.85;;;5.05;;
39448;SDS011;25151;45.566;9.382;2023-12-07T02:45:59;6.10;;;4.90;;
39448;SDS011;25151;45.566;9.382;2023-12-07T02:51:46;6.13;;;5.00;;
39448;SDS011;25151;45.566;9.382;2023-12-07T02:54:12;6.57;;;4.85;;
39448;SDS011;25151;45.566;9.382;2023-12-07T02:56:38;6.55;;;5.25;;
39448;SDS011;25151;45.566;9.382;2023-12-07T02:59:03;8.20;;;5.07;;
39448;SDS011;25151;45.566;9.382;2023-12-07T03:01:29;6.30;;;4.82;;
39448;SDS011;25151;45.566;9.382;2023-12-07T03:03:54;5.50;;;4.60;;
39448;SDS011;25151;45.566;9.382;2023-12-07T03:06:20;9.40;;;4.85;;
39448;SDS011;25151;45.566;9.382;2023-12-07T03:08:46;7.50;;;5.35;;
39448;SDS011;25151;45.566;9.382;2023-12-07T03:11:11;7.38;;;5.22;;
39448;SDS011;25151;45.566;9.382;2023-12-07T03:13:37;6.25;;;5.10;;
39448;SDS011;25151;45.566;9.382;2023-12-07T03:16:06;6.13;;;5.15;;
39448;SDS011;25151;45.566;9.382;2023-12-07T03:18:32;5.27;;;4.30;;
39448;SDS011;25151;45.566;9.382;2023-12-07T03:20:58;7.80;;;5.03;;
39448;SDS011;25151;45.566;9.382;2023-12-07T03:23:23;7.28;;;5.72;;
39448;SDS011;25151;45.566;9.382;2023-12-07T03:25:50;7.95;;;5.50;;
39448;SDS011;25151;45.566;9.382;2023-12-07T03:28:15;6.20;;;4.45;;
39448;SDS011;25151;45.566;9.382;2023-12-07T03:30:41;5.15;;;4.65;;
39448;SDS011;25151;45.566;9.382;2023-12-07T03:33:06;5.18;;;4.18;;
39448;SDS011;25151;45.566;9.382;2023-12-07T03:35:32;6.65;;;5.18;;
39448;SDS011;25151;45.566;9.382;2023-12-07T03:37:58;6.40;;;5.40;;
39448;SDS011;25151;45.566;9.382;2023-12-07T03:40:24;7.35;;;5.18;;
39448;SDS011;25151;45.566;9.382;2023-12-07T03:42:49;6.43;;;5.40;;
39448;SDS011;25151;45.566;9.382;2023-12-07T03:45:15;6.13;;;5.03;;
39448;SDS011;25151;45.566;9.382;2023-12-07T03:47:41;5.45;;;4.43;;
39448;SDS011;25151;45.566;9.382;2023-12-07T03:50:06;5.05;;;4.50;;
39448;SDS011;25151;45.566;9.382;2023-12-07T03:52:33;6.05;;;4.82;;
39448;SDS011;25151;45.566;9.382;2023-12-07T03:54:59;6.28;;;5.10;;
39448;SDS011;25151;45.566;9.382;2023-12-07T03:57:24;8.35;;;5.05;;
39448;SDS011;25151;45.566;9.382;2023-12-07T03:59:50;6.15;;;4.20;;
39448;SDS011;25151;45.566;9.382;2023-12-07T04:02:17;6.88;;;4.45;;
39448;SDS011;25151;45.566;9.382;2023-12-07T04:04:43;5.53;;;4.85;;
39448;SDS011;25151;45.566;9.382;2023-12-07T04:07:08;6.28;;;4.68;;
39448;SDS011;25151;45.566;9.382;2023-12-07T04:09:34;6.13;;;4.80;;
39448;SDS011;25151;45.566;9.382;2023-12-07T04:11:59;6.75;;;5.10;;
39448;SDS011;25151;45.566;9.382;2023-12-07T04:14:25;6.03;;;4.95;;
39448;SDS011;25151;45.566;9.382;2023-12-07T04:16:50;5.32;;;4.70;;
39448;SDS011;25151;45.566;9.382;2023-12-07T04:19:16;5.88;;;4.93;;
39448;SDS011;25151;45.566;9.382;2023-12-07T04:21:41;5.85;;;4.68;;
39448;SDS011;25151;45.566;9.382;2023-12-07T04:24:07;6.65;;;5.22;;
39448;SDS011;25151;45.566;9.382;2023-12-07T04:26:33;6.15;;;4.60;;
39448;SDS011;25151;45.566;9.382;2023-12-07T04:28:58;5.97;;;4.75;;
39448;SDS011;25151;45.566;9.382;2023-12-07T04:31:24;6.32;;;4.95;;
39448;SDS011;25151;45.566;9.382;2023-12-07T04:33:50;7.70;;;5.22;;
39448;SDS011;25151;45.566;9.382;2023-12-07T04:36:16;6.97;;;5.10;;
39448;SDS011;25151;45.566;9.382;2023-12-07T04:38:41;7.60;;;4.95;;
39448;SDS011;25151;45.566;9.382;2023-12-07T04:41:07;7.07;;;4.45;;
39448;SDS011;25151;45.566;9.382;2023-12-07T04:43:32;6.97;;;5.20;;
39448;SDS011;25151;45.566;9.382;2023-12-07T04:45:58;6.85;;;4.57;;
39448;SDS011;25151;45.566;9.382;2023-12-07T04:48:24;6.38;;;4.97;;
39448;SDS011;25151;45.566;9.382;2023-12-07T04:50:51;5.63;;;4.53;;
39448;SDS011;25151;45.566;9.382;2023-12-07T04:53:17;6.53;;;4.60;;
39448;SDS011;25151;45.566;9.382;2023-12-07T04:55:42;5.97;;;4.95;;
39448;SDS011;25151;45.566;9.382;2023-12-07T04:58:12;7.17;;;4.87;;
39448;SDS011;25151;45.566;9.382;2023-12-07T05:00:38;6.63;;;4.95;;
39448;SDS011;25151;45.566;9.382;2023-12-07T05:03:03;5.47;;;4.82;;
39448;SDS011;25151;45.566;9.382;2023-12-07T05:05:29;7.00;;;5.38;;
39448;SDS011;25151;45.566;9.382;2023-12-07T05:07:55;5.47;;;4.70;;
39448;SDS011;25151;45.566;9.382;2023-12-07T05:10:20;7.10;;;4.97;;
39448;SDS011;25151;45.566;9.382;2023-12-07T05:12:46;5.78;;;4.68;;
39448;SDS011;25151;45.566;9.382;2023-12-07T05:15:11;7.13;;;4.82;;
39448;SDS011;25151;45.566;9.382;2023-12-07T05:17:37;7.88;;;4.72;;
39448;SDS011;25151;45.566;9.382;2023-12-07T05:20:03;7.05;;;4.95;;
39448;SDS011;25151;45.566;9.382;2023-12-07T05:22:30;6.45;;;4.80;;
39448;SDS011;25151;45.566;9.382;2023-12-07T05:24:55;5.97;;;4.75;;
39448;SDS011;25151;45.566;9.382;2023-12-07T05:27:21;7.60;;;4.90;;
39448;SDS011;25151;45.566;9.382;2023-12-07T05:29:47;5.75;;;4.93;;
39448;SDS011;25151;45.566;9.382;2023-12-07T05:32:12;6.20;;;4.78;;
39448;SDS011;25151;45.566;9.382;2023-12-07T05:34:38;5.50;;;4.32;;
39448;SDS011;25151;45.566;9.382;2023-12-07T05:37:04;6.10;;;4.68;;
39448;SDS011;25151;45.566;9.382;2023-12-07T05:39:29;6.15;;;4.30;;
39448;SDS011;25151;45.566;9.382;2023-12-07T05:41:55;5.82;;;4.40;;
39448;SDS011;25151;45.566;9.382;2023-12-07T05:44:21;6.53;;;4.68;;
39448;SDS011;25151;45.566;9.382;2023-12-07T05:46:47;4.95;;;4.18;;
39448;SDS011;25151;45.566;9.382;2023-12-07T05:49:13;6.45;;;4.38;;
39448;SDS011;25151;45.566;9.382;2023-12-07T05:51:39;7.00;;;4.75;;
39448;SDS011;25151;45.566;9.382;2023-12-07T05:54:05;5.38;;;4.40;;
39448;SDS011;25151;45.566;9.382;2023-12-07T05:56:31;7.75;;;4.97;;
39448;SDS011;25151;45.566;9.382;2023-12-07T05:58:56;6.25;;;4.22;;
39448;SDS011;25151;45.566;9.382;2023-12-07T06:01:22;5.78;;;4.78;;
39448;SDS011;25151;45.566;9.382;2023-12-07T06:03:49;5.55;;;4.38;;
39448;SDS011;25151;45.566;9.382;2023-12-07T06:06:15;6.40;;;5.25;;
39448;SDS011;25151;45.566;9.382;2023-12-07T06:08:41;5.70;;;4.68;;
39448;SDS011;25151;45.566;9.382;2023-12-07T06:11:07;5.72;;;4.82;;
39448;SDS011;25151;45.566;9.382;2023-12-07T06:13:33;4.95;;;4.07;;
39448;SDS011;25151;45.566;9.382;2023-12-07T06:15:59;4.55;;;3.95;;
39448;SDS011;25151;45.566;9.382;2023-12-07T06:18:26;6.28;;;4.20;;
39448;SDS011;25151;45.566;9.382;2023-12-07T06:20:51;5.10;;;4.05;;
39448;SDS011;25151;45.566;9.382;2023-12-07T06:23:17;6.07;;;4.93;;
39448;SDS011;25151;45.566;9.382;2023-12-07T06:25:43;7.22;;;5.18;;
39448;SDS011;25151;45.566;9.382;2023-12-07T06:28:09;5.95;;;4.85;;
39448;SDS011;25151;45.566;9.382;2023-12-07T06:30:35;6.75;;;4.93;;
39448;SDS011;25151;45.566;9.382;2023-12-07T06:33:01;5.07;;;4.07;;
39448;SDS011;25151;45.566;9.382;2023-12-07T06:35:26;5.40;;;4.53;;
39448;SDS011;25151;45.566;9.382;2023-12-07T06:37:52;5.63;;;4.53;;
39448;SDS011;25151;45.566;9.382;2023-12-07T06:40:18;6.82;;;4.93;;
39448;SDS011;25151;45.566;9.382;2023-12-07T06:42:45;5.60;;;4.60;;
39448;SDS011;25151;45.566;9.382;2023-12-07T06:45:11;8.15;;;4.35;;
39448;SDS011;25151;45.566;9.382;2023-12-07T06:47:39;5.00;;;4.30;;
39448;SDS011;25151;45.566;9.382;2023-12-07T06:50:07;5.22;;;4.60;;
39448;SDS011;25151;45.566;9.382;2023-12-07T06:52:35;6.03;;;4.30;;
39448;SDS011;25151;45.566;9.382;2023-12-07T06:55:01;6.22;;;4.80;;
39448;SDS011;25151;45.566;9.382;2023-12-07T06:57:27;4.88;;;4.10;;
39448;SDS011;25151;45.566;9.382;2023-12-07T06:59:53;6.03;;;4.35;;
39448;SDS011;25151;45.566;9.382;2023-12-07T07:02:18;6.72;;;5.00;;
39448;SDS011;25151;45.566;9.382;2023-12-07T07:04:44;5.55;;;4.13;;
39448;SDS011;25151;45.566;9.382;2023-12-07T07:07:09;5.57;;;4.38;;
39448;SDS011;25151;45.566;9.382;2023-12-07T07:09:35;5.72;;;4.57;;
39448;SDS011;25151;45.566;9.382;2023-12-07T07:12:00;5.70;;;4.63;;
39448;SDS011;25151;45.566;9.382;2023-12-07T07:14:26;10.68;;;4.70;;
39448;SDS011;25151;45.566;9.382;2023-12-07T07:16:58;6.30;;;4.50;;
39448;SDS011;25151;45.566;9.382;2023-12-07T07:19:27;5.67;;;4.13;;
39448;SDS011;25151;45.566;9.382;2023-12-07T07:21:54;6.03;;;4.40;;
39448;SDS011;25151;45.566;9.382;2023-12-07T07:24:19;5.28;;;4.28;;
39448;SDS011;25151;45.566;9.382;2023-12-07T07:26:48;5.60;;;4.57;;
39448;SDS011;25151;45.566;9.382;2023-12-07T07:29:14;4.20;;;3.33;;
39448;SDS011;25151;45.566;9.382;2023-12-07T07:31:45;4.65;;;3.72;;
39448;SDS011;25151;45.566;9.382;2023-12-07T07:34:16;6.30;;;4.10;;
39448;SDS011;25151;45.566;9.382;2023-12-07T07:36:43;8.15;;;4.32;;
39448;SDS011;25151;45.566;9.382;2023-12-07T07:39:11;5.72;;;4.35;;
39448;SDS011;25151;45.566;9.382;2023-12-07T07:41:39;7.75;;;3.70;;
39448;SDS011;25151;45.566;9.382;2023-12-07T07:44:08;4.65;;;3.80;;
39448;SDS011;25151;45.566;9.382;2023-12-07T07:46:33;6.00;;;3.78;;
39448;SDS011;25151;45.566;9.382;2023-12-07T07:49:00;6.07;;;4.43;;
39448;SDS011;25151;45.566;9.382;2023-12-07T07:51:25;9.95;;;4.25;;
39448;SDS011;25151;45.566;9.382;2023-12-07T07:53:54;6.40;;;4.90;;
39448;SDS011;25151;45.566;9.382;2023-12-07T07:59:00;8.07;;;4.05;;
39448;SDS011;25151;45.566;9.382;2023-12-07T08:01:29;6.20;;;4.10;;
39448;SDS011;25151;45.566;9.382;2023-12-07T08:03:55;4.65;;;3.95;;
39448;SDS011;25151;45.566;9.382;2023-12-07T08:06:21;6.38;;;4.15;;
39448;SDS011;25151;45.566;9.382;2023-12-07T08:08:46;6.82;;;3.53;;
39448;SDS011;25151;45.566;9.382;2023-12-07T08:11:16;11.82;;;4.20;;
39448;SDS011;25151;45.566;9.382;2023-12-07T08:13:44;5.32;;;4.03;;
39448;SDS011;25151;45.566;9.382;2023-12-07T08:16:13;6.15;;;3.80;;
39448;SDS011;25151;45.566;9.382;2023-12-07T08:18:42;6.00;;;3.90;;
39448;SDS011;25151;45.566;9.382;2023-12-07T08:21:07;5.38;;;3.95;;
39448;SDS011;25151;45.566;9.382;2023-12-07T08:23:55;5.20;;;3.65;;
39448;SDS011;25151;45.566;9.382;2023-12-07T08:26:23;6.70;;;4.45;;
39448;SDS011;25151;45.566;9.382;2023-12-07T08:28:53;6.57;;;4.50;;
39448;SDS011;25151;45.566;9.382;2023-12-07T08:31:24;7.47;;;4.10;;
39448;SDS011;25151;45.566;9.382;2023-12-07T08:33:56;7.68;;;4.35;;
39448;SDS011;25151;45.566;9.382;2023-12-07T08:36:25;9.45;;;5.03;;
39448;SDS011;25151;45.566;9.382;2023-12-07T08:38:52;17.60;;;4.90;;
39448;SDS011;25151;45.566;9.382;2023-12-07T08:41:18;9.45;;;4.55;;
39448;SDS011;25151;45.566;9.382;2023-12-07T08:43:43;10.07;;;4.00;;
39448;SDS011;25151;45.566;9.382;2023-12-07T08:48:45;7.72;;;4.90;;
39448;SDS011;25151;45.566;9.382;2023-12-07T08:51:16;9.90;;;5.53;;
39448;SDS011;25151;45.566;9.382;2023-12-07T08:53:51;7.20;;;4.10;;
39448;SDS011;25151;45.566;9.382;2023-12-07T08:56:20;6.28;;;4.15;;
39448;SDS011;25151;45.566;9.382;2023-12-07T08:58:49;9.75;;;4.70;;
39448;SDS011;25151;45.566;9.382;2023-12-07T09:01:15;7.55;;;4.65;;
39448;SDS011;25151;45.566;9.382;2023-12-07T09:03:43;6.82;;;4.97;;
39448;SDS011;25151;45.566;9.382;2023-12-07T09:06:09;6.68;;;4.57;;
39448;SDS011;25151;45.566;9.382;2023-12-07T09:08:34;5.78;;;3.75;;
39448;SDS011;25151;45.566;9.382;2023-12-07T09:11:00;9.30;;;4.70;;
39448;SDS011;25151;45.566;9.382;2023-12-07T09:13:29;8.13;;;4.60;;
39448;SDS011;25151;45.566;9.382;2023-12-07T09:15:57;9.20;;;4.18;;
39448;SDS011;25151;45.566;9.382;2023-12-07T09:18:23;7.47;;;4.15;;
39448;SDS011;25151;45.566;9.382;2023-12-07T09:20:49;7.25;;;4.30;;
39448;SDS011;25151;45.566;9.382;2023-12-07T09:23:15;7.22;;;4.35;;
39448;SDS011;25151;45.566;9.382;2023-12-07T09:25:41;8.65;;;4.75;;
39448;SDS011;25151;45.566;9.382;2023-12-07T09:28:07;6.47;;;4.30;;
39448;SDS011;25151;45.566;9.382;2023-12-07T09:30:34;6.47;;;4.60;;
39448;SDS011;25151;45.566;9.382;2023-12-07T09:33:00;6.50;;;3.85;;
39448;SDS011;25151;45.566;9.382;2023-12-07T09:35:29;7.75;;;4.03;;
39448;SDS011;25151;45.566;9.382;2023-12-07T09:37:55;5.35;;;4.32;;
39448;SDS011;25151;45.566;9.382;2023-12-07T09:40:21;5.07;;;3.70;;
39448;SDS011;25151;45.566;9.382;2023-12-07T09:42:48;6.13;;;4.10;;
39448;SDS011;25151;45.566;9.382;2023-12-07T09:45:14;8.07;;;4.68;;
39448;SDS011;25151;45.566;9.382;2023-12-07T09:47:43;6.15;;;4.65;;
39448;SDS011;25151;45.566;9.382;2023-12-07T09:50:19;7.28;;;4.47;;
39448;SDS011;25151;45.566;9.382;2023-12-07T09:52:49;5.32;;;3.58;;
39448;SDS011;25151;45.566;9.382;2023-12-07T09:55:16;7.68;;;4.32;;
39448;SDS011;25151;45.566;9.382;2023-12-07T09:57:46;9.60;;;4.45;;
39448;SDS011;25151;45.566;9.382;2023-12-07T10:00:12;7.68;;;4.05;;
39448;SDS011;25151;45.566;9.382;2023-12-07T10:02:41;19.48;;;4.55;;
39448;SDS011;25151;45.566;9.382;2023-12-07T10:05:11;6.03;;;4.18;;
39448;SDS011;25151;45.566;9.382;2023-12-07T10:07:48;6.15;;;4.70;;
39448;SDS011;25151;45.566;9.382;2023-12-07T10:10:18;7.43;;;4.20;;
39448;SDS011;25151;45.566;9.382;2023-12-07T10:12:53;6.15;;;4.65;;
39448;SDS011;25151;45.566;9.382;2023-12-07T10:15:27;6.55;;;4.40;;
39448;SDS011;25151;45.566;9.382;2023-12-07T10:17:55;5.03;;;4.13;;
39448;SDS011;25151;45.566;9.382;2023-12-07T10:20:24;6.13;;;3.83;;
39448;SDS011;25151;45.566;9.382;2023-12-07T10:23:01;6.55;;;4.50;;
39448;SDS011;25151;45.566;9.382;2023-12-07T10:25:32;9.68;;;4.22;;
39448;SDS011;25151;45.566;9.382;2023-12-07T10:28:03;4.95;;;3.67;;
39448;SDS011;25151;45.566;9.382;2023-12-07T10:30:32;9.98;;;4.38;;
39448;SDS011;25151;45.566;9.382;2023-12-07T10:33:05;5.83;;;3.80;;
39448;SDS011;25151;45.566;9.382;2023-12-07T10:35:40;5.50;;;3.80;;
39448;SDS011;25151;45.566;9.382;2023-12-07T10:38:10;5.60;;;3.88;;
39448;SDS011;25151;45.566;9.382;2023-12-07T10:40:38;5.47;;;4.22;;
39448;SDS011;25151;45.566;9.382;2023-12-07T10:43:05;6.57;;;4.13;;
39448;SDS011;25151;45.566;9.382;2023-12-07T10:45:32;6.57;;;4.25;;
39448;SDS011;25151;45.566;9.382;2023-12-07T10:48:03;6.53;;;4.13;;
39448;SDS011;25151;45.566;9.382;2023-12-07T10:50:45;6.20;;;3.65;;
39448;SDS011;25151;45.566;9.382;2023-12-07T10:53:24;7.90;;;4.15;;
39448;SDS011;25151;45.566;9.382;2023-12-07T10:56:00;6.97;;;4.00;;
39448;SDS011;25151;45.566;9.382;2023-12-07T10:58:31;4.85;;;3.70;;
39448;SDS011;25151;45.566;9.382;2023-12-07T11:01:01;7.65;;;3.65;;
39448;SDS011;25151;45.566;9.382;2023-12-07T11:03:28;10.20;;;4.28;;
39448;SDS011;25151;45.566;9.382;2023-12-07T11:05:54;5.47;;;3.47;;
39448;SDS011;25151;45.566;9.382;2023-12-07T11:08:33;6.22;;;3.33;;
39448;SDS011;25151;45.566;9.382;2023-12-07T11:14:01;5.80;;;3.85;;
39448;SDS011;25151;45.566;9.382;2023-12-07T11:16:33;5.75;;;3.15;;
39448;SDS011;25151;45.566;9.382;2023-12-07T11:19:01;5.35;;;3.97;;
39448;SDS011;25151;45.566;9.382;2023-12-07T11:21:28;7.82;;;4.10;;
39448;SDS011;25151;45.566;9.382;2023-12-07T11:23:56;5.68;;;4.45;;
39448;SDS011;25151;45.566;9.382;2023-12-07T11:26:27;5.97;;;4.30;;
39448;SDS011;25151;45.566;9.382;2023-12-07T11:28:56;8.45;;;4.20;;
39448;SDS011;25151;45.566;9.382;2023-12-07T11:31:22;10.23;;;4.18;;
39448;SDS011;25151;45.566;9.382;2023-12-07T11:33:48;5.70;;;3.78;;
39448;SDS011;25151;45.566;9.382;2023-12-07T11:36:17;5.25;;;4.10;;
39448;SDS011;25151;45.566;9.382;2023-12-07T11:41:43;7.05;;;4.60;;
39448;SDS011;25151;45.566;9.382;2023-12-07T11:44:13;6.65;;;4.55;;
39448;SDS011;25151;45.566;9.382;2023-12-07T11:46:39;5.55;;;3.80;;
39448;SDS011;25151;45.566;9.382;2023-12-07T11:49:05;5.78;;;3.72;;
39448;SDS011;25151;45.566;9.382;2023-12-07T11:51:36;5.65;;;4.57;;
39448;SDS011;25151;45.566;9.382;2023-12-07T11:54:02;7.13;;;4.40;;
39448;SDS011;25151;45.566;9.382;2023-12-07T11:56:33;4.53;;;3.88;;
39448;SDS011;25151;45.566;9.382;2023-12-07T11:58:59;5.70;;;3.90;;
39448;SDS011;25151;45.566;9.382;2023-12-07T12:01:25;6.47;;;4.47;;
39448;SDS011;25151;45.566;9.382;2023-12-07T12:06:24;6.13;;;3.85;;
39448;SDS011;25151;45.566;9.382;2023-12-07T12:08:51;6.22;;;3.53;;
39448;SDS011;25151;45.566;9.382;2023-12-07T12:11:23;5.63;;;4.25;;
39448;SDS011;25151;45.566;9.382;2023-12-07T12:13:57;6.80;;;4.40;;
39448;SDS011;25151;45.566;9.382;2023-12-07T12:16:29;7.53;;;3.88;;
39448;SDS011;25151;45.566;9.382;2023-12-07T12:19:03;5.43;;;3.65;;
39448;SDS011;25151;45.566;9.382;2023-12-07T12:21:33;5.78;;;3.90;;
39448;SDS011;25151;45.566;9.382;2023-12-07T12:24:00;7.78;;;4.55;;
39448;SDS011;25151;45.566;9.382;2023-12-07T12:26:27;6.13;;;4.00;;
39448;SDS011;25151;45.566;9.382;2023-12-07T12:28:54;6.15;;;4.00;;
39448;SDS011;25151;45.566;9.382;2023-12-07T12:31:22;5.13;;;3.80;;
39448;SDS011;25151;45.566;9.382;2023-12-07T12:33:50;5.22;;;3.90;;
39448;SDS011;25151;45.566;9.382;2023-12-07T12:36:16;5.03;;;3.97;;
39448;SDS011;25151;45.566;9.382;2023-12-07T12:38:52;8.95;;;3.72;;
39448;SDS011;25151;45.566;9.382;2023-12-07T12:41:23;5.78;;;4.22;;
39448;SDS011;25151;45.566;9.382;2023-12-07T12:43:49;6.38;;;3.90;;
39448;SDS011;25151;45.566;9.382;2023-12-07T12:46:17;6.45;;;3.80;;
39448;SDS011;25151;45.566;9.382;2023-12-07T12:48:54;8.50;;;4.05;;
39448;SDS011;25151;45.566;9.382;2023-12-07T12:51:22;6.65;;;4.07;;
39448;SDS011;25151;45.566;9.382;2023-12-07T12:53:53;6.25;;;4.10;;
39448;SDS011;25151;45.566;9.382;2023-12-07T12:56:26;6.93;;;4.10;;
39448;SDS011;25151;45.566;9.382;2023-12-07T12:59:05;5.90;;;3.70;;
39448;SDS011;25151;45.566;9.382;2023-12-07T13:01:35;5.93;;;4.10;;
39448;SDS011;25151;45.566;9.382;2023-12-07T13:04:00;8.77;;;4.32;;
39448;SDS011;25151;45.566;9.382;2023-12-07T13:06:27;4.55;;;3.70;;
39448;SDS011;25151;45.566;9.382;2023-12-07T13:09:04;5.65;;;3.65;;
39448;SDS011;25151;45.566;9.382;2023-12-07T13:11:35;10.05;;;4.57;;
39448;SDS011;25151;45.566;9.382;2023-12-07T13:14:03;5.78;;;3.47;;
39448;SDS011;25151;45.566;9.382;2023-12-07T13:16:32;5.95;;;3.88;;
39448;SDS011;25151;45.566;9.382;2023-12-07T13:18:59;6.93;;;3.65;;
39448;SDS011;25151;45.566;9.382;2023-12-07T13:21:25;11.05;;;4.43;;
39448;SDS011;25151;45.566;9.382;2023-12-07T13:23:51;7.03;;;3.50;;
39448;SDS011;25151;45.566;9.382;2023-12-07T13:26:19;6.22;;;3.63;;
39448;SDS011;25151;45.566;9.382;2023-12-07T13:28:48;6.30;;;3.33;;
39448;SDS011;25151;45.566;9.382;2023-12-07T13:31:16;5.38;;;3.60;;
39448;SDS011;25151;45.566;9.382;2023-12-07T13:33:43;11.88;;;3.85;;
39448;SDS011;25151;45.566;9.382;2023-12-07T13:36:09;6.20;;;3.75;;
39448;SDS011;25151;45.566;9.382;2023-12-07T13:38:39;8.80;;;3.80;;
39448;SDS011;25151;45.566;9.382;2023-12-07T13:41:06;4.97;;;3.22;;
39448;SDS011;25151;45.566;9.382;2023-12-07T13:43:34;6.35;;;3.55;;
39448;SDS011;25151;45.566;9.382;2023-12-07T13:46:01;5.93;;;4.03;;
39448;SDS011;25151;45.566;9.382;2023-12-07T13:48:27;5.80;;;3.67;;
39448;SDS011;25151;45.566;9.382;2023-12-07T13:50:53;5.60;;;4.28;;
39448;SDS011;25151;45.566;9.382;2023-12-07T13:53:20;5.50;;;3.83;;
39448;SDS011;25151;45.566;9.382;2023-12-07T13:55:47;5.22;;;3.85;;
39448;SDS011;25151;45.566;9.382;2023-12-07T13:58:17;5.78;;;3.88;;
39448;SDS011;25151;45.566;9.382;2023-12-07T14:00:42;6.07;;;3.70;;
39448;SDS011;25151;45.566;9.382;2023-12-07T14:03:12;9.07;;;3.67;;
39448;SDS011;25151;45.566;9.382;2023-12-07T14:05:39;5.00;;;3.47;;
39448;SDS011;25151;45.566;9.382;2023-12-07T14:08:05;4.78;;;3.45;;
39448;SDS011;25151;45.566;9.382;2023-12-07T14:10:33;5.30;;;3.40;;
39448;SDS011;25151;45.566;9.382;2023-12-07T14:13:00;6.72;;;4.28;;
39448;SDS011;25151;45.566;9.382;2023-12-07T14:15:26;4.20;;;3.25;;
39448;SDS011;25151;45.566;9.382;2023-12-07T14:20:25;6.05;;;3.38;;
39448;SDS011;25151;45.566;9.382;2023-12-07T14:22:53;6.10;;;3.17;;
39448;SDS011;25151;45.566;9.382;2023-12-07T14:25:29;7.18;;;3.90;;
39448;SDS011;25151;45.566;9.382;2023-12-07T14:27:56;6.72;;;3.50;;
39448;SDS011;25151;45.566;9.382;2023-12-07T14:30:23;5.53;;;3.25;;
39448;SDS011;25151;45.566;9.382;2023-12-07T14:32:49;6.10;;;3.33;;
39448;SDS011;25151;45.566;9.382;2023-12-07T14:35:18;7.15;;;3.50;;
39448;SDS011;25151;45.566;9.382;2023-12-07T14:37:45;6.60;;;3.55;;
39448;SDS011;25151;45.566;9.382;2023-12-07T14:40:12;7.13;;;3.85;;
39448;SDS011;25151;45.566;9.382;2023-12-07T14:42:43;6.75;;;3.83;;
39448;SDS011;25151;45.566;9.382;2023-12-07T14:45:10;3.78;;;2.92;;
39448;SDS011;25151;45.566;9.382;2023-12-07T14:47:37;5.15;;;3.35;;
39448;SDS011;25151;45.566;9.382;2023-12-07T14:50:03;6.35;;;3.35;;
39448;SDS011;25151;45.566;9.382;2023-12-07T14:52:30;7.25;;;3.50;;
39448;SDS011;25151;45.566;9.382;2023-12-07T14:54:58;4.70;;;3.17;;
39448;SDS011;25151;45.566;9.382;2023-12-07T14:57:29;4.28;;;3.10;;
39448;SDS011;25151;45.566;9.382;2023-12-07T15:00:00;4.10;;;3.22;;
39448;SDS011;25151;45.566;9.382;2023-12-07T15:02:29;4.53;;;3.30;;
39448;SDS011;25151;45.566;9.382;2023-12-07T15:07:29;7.78;;;3.55;;
39448;SDS011;25151;45.566;9.382;2023-12-07T15:09:57;5.32;;;3.65;;
39448;SDS011;25151;45.566;9.382;2023-12-07T15:12:23;4.90;;;3.40;;